createdAt,value
2022-12-19T00:01:36.595Z,33.70
2022-12-19T00:03:38.470Z,36.33
2022-12-19T00:05:40.972Z,27.43
2022-12-19T00:07:42.683Z,38.63
2022-12-19T00:09:44.425Z,38.63
2022-12-19T00:11:48.524Z,29.70
2022-12-19T00:13:50.490Z,39.07
2022-12-19T00:15:52.226Z,35.37
2022-12-19T00:17:53.984Z,27.97
2022-12-19T00:19:55.659Z,36.67
2022-12-19T00:21:57.336Z,36.47
2022-12-19T00:23:59.049Z,35.13
2022-12-19T00:26:15.311Z,36.50
2022-12-19T00:28:17.000Z,38.13
2022-12-19T00:30:21.429Z,31.13
2022-12-19T00:32:23.484Z,34.73
2022-12-19T00:34:25.244Z,39.67
2022-12-19T00:36:32.252Z,48.77
2022-12-19T00:38:34.617Z,40.00
2022-12-19T00:40:36.299Z,35.60
2022-12-19T00:42:38.079Z,28.20
2022-12-19T00:44:39.779Z,32.53
2022-12-19T00:46:41.800Z,39.07
2022-12-19T00:48:43.971Z,38.27
2022-12-19T00:50:45.683Z,39.17
2022-12-19T00:52:47.408Z,37.07
2022-12-19T00:54:49.172Z,24.57
2022-12-19T00:56:50.892Z,30.40
2022-12-19T00:58:53.432Z,46.57
2022-12-19T01:00:55.204Z,29.73
2022-12-19T01:02:57.197Z,40.33
2022-12-19T01:04:59.136Z,35.07
2022-12-19T01:07:03.103Z,36.80
2022-12-19T01:09:09.129Z,35.97
2022-12-19T01:11:11.052Z,31.03
2022-12-19T01:13:12.902Z,34.53
2022-12-19T01:15:23.130Z,27.73
2022-12-19T01:17:24.938Z,35.20
2022-12-19T01:19:27.351Z,41.23
2022-12-19T01:21:29.052Z,42.03
2022-12-19T01:23:31.000Z,27.87
2022-12-19T01:25:34.159Z,34.47
2022-12-19T01:27:38.449Z,38.07
2022-12-19T01:29:52.229Z,32.50
2022-12-19T01:31:56.394Z,37.70
2022-12-19T01:33:59.773Z,31.43
2022-12-19T01:36:07.613Z,39.07
2022-12-19T01:38:16.563Z,41.13
2022-12-19T01:40:18.914Z,38.00
2022-12-19T01:42:23.507Z,41.70
2022-12-19T01:44:26.468Z,45.07
2022-12-19T01:46:36.435Z,42.90
2022-12-19T01:48:40.810Z,33.03
2022-12-19T01:51:35.097Z,31.40
2022-12-19T01:53:49.022Z,36.77
2022-12-19T01:55:51.325Z,25.20
2022-12-19T01:57:54.780Z,39.43
2022-12-19T01:59:58.969Z,34.20
2022-12-19T02:02:08.616Z,30.57
2022-12-19T02:04:10.721Z,39.07
2022-12-19T02:06:18.157Z,34.07
2022-12-19T02:08:20.314Z,30.00
2022-12-19T02:10:22.019Z,33.93
2022-12-19T02:12:24.932Z,32.17
2022-12-19T02:14:27.188Z,31.07
2022-12-19T02:16:35.636Z,41.63
2022-12-19T02:18:43.495Z,40.03
2022-12-19T02:21:08.401Z,42.60
2022-12-19T02:23:16.278Z,36.40
2022-12-19T02:25:50.027Z,36.27
2022-12-19T02:28:15.708Z,30.33
2022-12-19T02:30:35.381Z,39.10
2022-12-19T02:32:50.993Z,38.30
2022-12-19T02:35:22.015Z,31.50
2022-12-19T02:37:28.319Z,35.87
2022-12-19T02:39:48.764Z,31.63
2022-12-19T02:42:00.416Z,37.60
2022-12-19T02:44:03.059Z,30.10
2022-12-19T02:46:06.393Z,38.00
2022-12-19T02:48:09.463Z,40.13
2022-12-19T02:50:11.656Z,34.43
2022-12-19T02:52:18.961Z,31.97
2022-12-19T02:54:20.769Z,37.60
2022-12-19T02:56:41.159Z,33.40
2022-12-19T02:58:57.947Z,39.53
2022-12-19T03:01:00.857Z,37.90
2022-12-19T03:03:35.207Z,24.83
2022-12-19T03:06:06.184Z,27.13
2022-12-19T03:08:15.213Z,37.33
2022-12-19T03:10:38.129Z,33.70
2022-12-19T03:12:48.896Z,39.20
2022-12-19T03:14:52.347Z,34.73
2022-12-19T03:16:54.166Z,44.37
2022-12-19T03:18:56.839Z,37.50
2022-12-19T03:21:07.903Z,34.30
2022-12-19T03:23:09.674Z,33.00
2022-12-19T03:25:11.512Z,36.17
2022-12-19T03:27:33.718Z,43.20
2022-12-19T03:29:50.516Z,37.77
2022-12-19T03:31:53.122Z,29.03
2022-12-19T03:33:57.251Z,32.33
2022-12-19T03:36:05.605Z,43.00
2022-12-19T03:38:09.561Z,40.63
2022-12-19T03:40:15.559Z,29.87
2022-12-19T03:42:36.135Z,31.63
2022-12-19T03:44:40.884Z,38.57
2022-12-19T03:46:46.118Z,43.23
2022-12-19T03:48:49.796Z,44.33
2022-12-19T03:51:06.325Z,27.00
2022-12-19T03:53:15.777Z,34.23
2022-12-19T03:55:58.223Z,40.70
2022-12-19T03:58:04.120Z,31.40
2022-12-19T04:00:09.117Z,33.07
2022-12-19T04:02:13.566Z,32.40
2022-12-19T04:04:15.900Z,32.53
2022-12-19T04:06:17.773Z,32.60
2022-12-19T04:08:20.026Z,25.67
2022-12-19T04:10:23.994Z,33.13
2022-12-19T04:12:29.726Z,43.40
2022-12-19T04:14:34.314Z,36.03
2022-12-19T04:16:45.263Z,39.67
2022-12-19T04:18:53.391Z,51.93
2022-12-19T04:21:20.259Z,33.27
2022-12-19T04:23:29.366Z,33.97
2022-12-19T04:25:34.346Z,40.67
2022-12-19T04:27:37.621Z,37.37
2022-12-19T04:29:39.809Z,37.23
2022-12-19T04:31:41.649Z,33.57
2022-12-19T04:33:43.424Z,30.67
2022-12-19T04:35:45.130Z,38.47
2022-12-19T04:37:46.909Z,37.97
2022-12-19T04:39:48.576Z,31.57
2022-12-19T04:41:50.245Z,33.97
2022-12-19T04:43:52.015Z,40.20
2022-12-19T04:45:57.270Z,29.33
2022-12-19T04:47:59.549Z,32.63
2022-12-19T04:50:01.305Z,34.43
2022-12-19T04:52:03.037Z,32.80
2022-12-19T04:54:04.823Z,39.90
2022-12-19T04:56:07.339Z,36.80
2022-12-19T04:58:09.031Z,31.87
2022-12-19T05:00:11.313Z,31.63
2022-12-19T05:02:13.269Z,40.63
2022-12-19T05:04:15.388Z,42.10
2022-12-19T05:06:18.049Z,33.77
2022-12-19T05:08:19.814Z,36.83
2022-12-19T05:10:21.455Z,35.53
2022-12-19T05:12:23.134Z,38.07
2022-12-19T05:14:24.882Z,25.10
2022-12-19T05:16:26.714Z,29.90
2022-12-19T05:18:30.284Z,24.77
2022-12-19T05:20:31.995Z,38.60
2022-12-19T05:22:33.734Z,30.90
2022-12-19T05:24:35.542Z,43.23
2022-12-19T05:26:37.450Z,43.50
2022-12-19T05:28:39.404Z,34.00
2022-12-19T05:30:41.723Z,27.73
2022-12-19T05:32:43.589Z,33.60
2022-12-19T05:34:45.284Z,44.00
2022-12-19T05:36:47.086Z,35.50
2022-12-19T05:38:48.936Z,51.70
2022-12-19T05:40:50.629Z,41.03
2022-12-19T05:42:52.495Z,45.57
2022-12-19T05:44:57.212Z,32.77
2022-12-19T05:46:59.001Z,30.10
2022-12-19T05:49:00.779Z,44.37
2022-12-19T05:51:03.054Z,32.83
2022-12-19T05:53:04.772Z,34.73
2022-12-19T05:55:07.878Z,37.20
2022-12-19T05:57:09.674Z,41.97
2022-12-19T05:59:11.948Z,32.57
2022-12-19T06:01:18.310Z,44.87
2022-12-19T06:03:20.348Z,34.57
2022-12-19T06:05:22.216Z,35.57
2022-12-19T06:07:23.998Z,32.80
2022-12-19T06:09:26.244Z,30.20
2022-12-19T06:11:28.092Z,29.23
2022-12-19T06:13:30.850Z,28.73
2022-12-19T06:15:32.666Z,37.33
2022-12-19T06:17:34.583Z,44.03
2022-12-19T06:19:36.369Z,29.97
2022-12-19T06:21:45.446Z,38.90
2022-12-19T06:23:55.663Z,38.00
2022-12-19T06:25:58.501Z,33.87
2022-12-19T06:28:00.318Z,35.07
2022-12-19T06:30:02.277Z,34.27
2022-12-19T06:32:04.221Z,33.70
2022-12-19T06:34:06.090Z,31.03
2022-12-19T06:36:12.155Z,43.00
2022-12-19T06:38:14.004Z,41.70
2022-12-19T06:40:35.745Z,40.73
2022-12-19T06:42:37.785Z,31.00
2022-12-19T06:44:39.520Z,34.33
2022-12-19T06:46:41.969Z,29.07
2022-12-19T06:48:44.587Z,33.63
2022-12-19T06:50:46.304Z,39.00
2022-12-19T06:52:48.321Z,32.33
2022-12-19T06:54:50.541Z,47.00
2022-12-19T06:56:52.232Z,28.77
2022-12-19T06:58:54.089Z,39.57
2022-12-19T07:00:56.827Z,38.07
2022-12-19T07:02:59.680Z,39.57
2022-12-19T07:05:04.285Z,38.93
2022-12-19T07:07:06.017Z,36.80
2022-12-19T07:09:07.772Z,35.07
2022-12-19T07:11:09.835Z,36.27
2022-12-19T07:13:11.701Z,32.37
2022-12-19T07:15:13.628Z,35.57
2022-12-19T07:17:15.683Z,37.87
2022-12-19T07:19:17.895Z,35.97
2022-12-19T07:21:19.729Z,33.53
2022-12-19T07:23:22.347Z,44.30
2022-12-19T07:25:24.143Z,40.97
2022-12-19T07:27:35.187Z,29.20
2022-12-19T07:29:37.655Z,30.87
2022-12-19T07:31:39.461Z,30.30
2022-12-19T07:33:43.978Z,35.97
2022-12-19T07:35:45.782Z,29.70
2022-12-19T07:37:47.570Z,32.03
2022-12-19T07:39:49.865Z,31.23
2022-12-19T07:41:51.804Z,33.97
2022-12-19T07:43:53.588Z,35.63
2022-12-19T07:45:56.245Z,36.37
2022-12-19T07:48:02.279Z,35.80
2022-12-19T07:50:04.457Z,33.70
2022-12-19T07:52:06.325Z,31.50
2022-12-19T07:54:08.400Z,31.67
2022-12-19T07:56:10.256Z,42.13
2022-12-19T07:58:12.456Z,35.73
2022-12-19T08:00:14.935Z,31.33
2022-12-19T08:02:16.951Z,31.87
2022-12-19T08:04:19.010Z,30.80
2022-12-19T08:06:21.078Z,37.23
2022-12-19T08:08:22.929Z,32.37
2022-12-19T08:10:24.987Z,39.20
2022-12-19T08:12:27.224Z,36.07
2022-12-19T08:14:29.147Z,31.73
2022-12-19T08:16:37.301Z,30.80
2022-12-19T08:18:45.928Z,31.23
2022-12-19T08:20:47.918Z,32.27
2022-12-19T08:22:49.629Z,28.80
2022-12-19T08:24:51.394Z,28.67
2022-12-19T08:26:53.141Z,34.30
2022-12-19T08:28:56.574Z,39.80
2022-12-19T08:30:58.519Z,30.43
2022-12-19T08:33:00.332Z,30.00
2022-12-19T08:35:02.141Z,27.43
2022-12-19T08:37:03.877Z,32.73
2022-12-19T08:39:06.448Z,29.43
2022-12-19T08:41:08.945Z,33.27
2022-12-19T08:43:10.705Z,35.43
2022-12-19T08:45:12.447Z,28.57
2022-12-19T08:47:15.122Z,31.80
2022-12-19T08:49:20.328Z,29.77
2022-12-19T08:51:22.210Z,25.00
2022-12-19T08:53:26.734Z,34.10
2022-12-19T08:55:28.666Z,33.20
2022-12-19T08:57:31.697Z,32.70
2022-12-19T08:59:41.987Z,29.70
2022-12-19T09:05:59.655Z,32.60
2022-12-19T09:06:57.602Z,30.10
2022-12-19T09:09:00.143Z,36.97
2022-12-19T09:11:08.303Z,27.80
2022-12-19T09:13:10.323Z,30.80
2022-12-19T09:15:12.777Z,32.30
2022-12-19T09:17:14.903Z,35.10
2022-12-19T09:19:17.047Z,34.80
2022-12-19T09:21:20.296Z,25.03
2022-12-19T09:23:23.480Z,23.23
2022-12-19T09:25:25.191Z,20.50
2022-12-19T09:27:27.154Z,33.30
2022-12-19T09:29:33.616Z,26.50
2022-12-19T09:31:37.286Z,25.20
2022-12-19T09:33:43.358Z,26.93
2022-12-19T09:35:52.836Z,37.60
2022-12-19T09:38:00.562Z,26.57
2022-12-19T09:40:02.531Z,35.13
2022-12-19T09:42:31.449Z,30.03
2022-12-19T09:44:52.327Z,33.20
2022-12-19T09:47:05.539Z,32.77
2022-12-19T09:49:12.651Z,24.10
2022-12-19T09:51:15.414Z,31.43
2022-12-19T09:53:29.313Z,28.40
2022-12-19T09:55:39.995Z,23.30
2022-12-19T09:57:58.520Z,29.90
2022-12-19T10:00:07.278Z,20.20
2022-12-19T10:02:26.538Z,24.67
2022-12-19T10:04:30.540Z,32.00
2022-12-19T10:07:20.360Z,25.20
2022-12-19T10:09:27.682Z,20.83
2022-12-19T10:12:39.326Z,28.77
2022-12-19T10:13:58.033Z,29.90
2022-12-19T10:16:12.238Z,20.05
2022-12-19T10:18:40.743Z,24.48
2022-12-19T10:20:48.187Z,27.83
2022-12-19T10:23:16.717Z,28.38
2022-12-19T10:25:34.285Z,30.25
2022-12-19T10:27:59.212Z,22.70
2022-12-19T10:30:31.726Z,34.60
2022-12-19T10:32:51.283Z,21.08
2022-12-19T10:34:53.543Z,31.75
2022-12-19T10:37:26.748Z,26.15
2022-12-19T10:39:31.668Z,30.02
2022-12-19T10:41:36.766Z,25.27
2022-12-19T10:43:51.505Z,30.77
2022-12-19T10:45:57.752Z,24.60
2022-12-19T10:47:59.881Z,25.13
2022-12-19T10:50:09.044Z,26.58
2022-12-19T10:52:12.347Z,22.88
2022-12-19T10:54:14.123Z,24.77
2022-12-19T10:56:24.612Z,30.75
2022-12-19T10:58:32.884Z,37.23
2022-12-19T11:00:34.759Z,25.33
2022-12-19T11:02:39.802Z,24.90
2022-12-19T11:04:41.904Z,26.40
2022-12-19T11:06:48.116Z,27.80
2022-12-19T11:08:49.954Z,36.97
2022-12-19T11:12:52.222Z,24.23
2022-12-19T11:19:30.214Z,29.20
2022-12-19T11:19:53.499Z,25.48
2022-12-19T11:29:14.673Z,29.70
2022-12-19T11:29:37.839Z,31.10
2022-12-19T11:30:05.577Z,27.75
2022-12-19T11:30:08.453Z,34.72
2022-12-19T11:30:09.734Z,34.50
2022-12-19T11:32:42.960Z,28.65
2022-12-19T11:34:50.226Z,42.88
2022-12-19T11:36:54.685Z,32.63
2022-12-19T11:38:56.660Z,39.88
2022-12-19T11:41:01.584Z,39.92
2022-12-19T11:43:43.166Z,31.80
2022-12-19T11:45:45.475Z,29.45
2022-12-19T11:47:57.351Z,28.70
2022-12-19T11:50:13.950Z,30.70
2022-12-19T11:55:07.731Z,23.17
2022-12-19T11:57:13.261Z,22.92
2022-12-19T11:59:22.462Z,20.70
2022-12-19T12:01:39.040Z,24.02
2022-12-19T12:03:59.256Z,22.60
2022-12-19T12:06:13.184Z,29.25
2022-12-19T12:09:35.210Z,25.50
2022-12-19T12:16:18.589Z,24.73
2022-12-19T12:25:48.670Z,21.25
2022-12-19T12:26:19.114Z,26.50
2022-12-19T12:31:11.643Z,24.77
2022-12-19T12:31:21.496Z,19.95
2022-12-19T12:31:50.449Z,24.55
2022-12-19T12:31:59.018Z,28.98
2022-12-19T12:32:02.060Z,33.65
2022-12-19T12:35:29.217Z,18.98
2022-12-19T12:35:41.440Z,27.67
2022-12-19T12:40:01.902Z,28.30
2022-12-19T12:42:20.135Z,19.92
2022-12-19T12:44:33.082Z,23.70
2022-12-19T12:46:49.268Z,28.73
2022-12-19T12:48:53.887Z,20.45
2022-12-19T12:50:56.287Z,28.27
2022-12-19T12:53:00.167Z,25.55
2022-12-19T12:55:04.463Z,25.48
2022-12-19T12:57:06.265Z,24.45
2022-12-19T12:59:24.703Z,21.30
2022-12-19T13:01:29.238Z,28.25
2022-12-19T13:03:31.157Z,29.10
2022-12-19T13:05:41.475Z,31.80
2022-12-19T13:07:54.710Z,20.77
2022-12-19T13:10:14.473Z,25.25
2022-12-19T13:12:46.389Z,35.40
2022-12-19T13:14:50.398Z,24.85
2022-12-19T13:16:53.751Z,25.83
2022-12-19T13:19:24.145Z,29.75
2022-12-19T13:22:09.422Z,27.25
2022-12-19T13:24:15.981Z,20.58
2022-12-19T13:26:42.044Z,28.63
2022-12-19T13:28:43.966Z,27.25
2022-12-19T13:31:20.572Z,24.98
2022-12-19T13:33:23.957Z,30.85
2022-12-19T13:39:16.209Z,36.63
2022-12-19T13:40:02.470Z,24.02
2022-12-19T13:40:33.160Z,40.45
2022-12-19T13:43:07.454Z,26.95
2022-12-19T13:45:31.249Z,30.17
2022-12-19T13:47:40.089Z,29.27
2022-12-19T13:49:43.885Z,24.95
2022-12-19T13:51:53.028Z,30.85
2022-12-19T13:53:59.943Z,31.92
2022-12-19T13:56:04.900Z,21.65
2022-12-19T13:58:06.677Z,25.13
2022-12-19T14:00:10.862Z,29.50
2022-12-19T14:02:19.424Z,28.98
2022-12-19T14:04:33.921Z,27.98
2022-12-19T14:06:46.688Z,23.15
2022-12-19T14:11:23.789Z,34.08
2022-12-19T14:11:41.342Z,22.33
2022-12-19T14:14:10.301Z,23.00
2022-12-19T14:16:18.637Z,20.50
2022-12-19T14:18:44.749Z,27.48
2022-12-19T14:22:08.639Z,21.25
2022-12-19T14:23:06.631Z,21.60
2022-12-19T14:28:17.382Z,18.48
2022-12-19T14:28:21.293Z,26.27
2022-12-19T14:30:35.255Z,32.00
2022-12-19T14:33:45.635Z,29.00
2022-12-19T14:36:06.039Z,18.65
2022-12-19T14:37:55.568Z,20.20
2022-12-19T14:39:58.894Z,21.73
2022-12-19T14:43:39.452Z,26.63
2022-12-19T14:52:35.169Z,25.23
2022-12-19T14:52:35.898Z,28.33
2022-12-19T14:54:08.374Z,27.10
2022-12-19T14:54:50.557Z,20.05
2022-12-19T14:56:13.643Z,25.15
2022-12-19T14:58:50.681Z,27.80
2022-12-19T15:01:09.832Z,35.15
2022-12-19T15:03:13.901Z,30.08
2022-12-19T15:05:18.987Z,33.22
2022-12-19T15:07:42.179Z,31.73
2022-12-19T15:11:00.030Z,36.92
2022-12-19T15:14:03.903Z,44.08
2022-12-19T15:15:17.560Z,34.00
2022-12-19T15:17:23.305Z,28.60
2022-12-19T15:19:25.205Z,29.95
2022-12-19T15:21:28.553Z,38.42
2022-12-19T15:23:31.457Z,29.23
2022-12-19T15:26:02.887Z,33.17
2022-12-19T15:27:55.492Z,32.28
2022-12-19T15:29:57.761Z,30.08
2022-12-19T15:31:59.537Z,25.88
2022-12-19T15:34:50.143Z,31.70
2022-12-19T15:36:47.533Z,27.92
2022-12-19T15:38:49.257Z,29.95
2022-12-19T15:40:50.974Z,28.75
2022-12-19T15:42:54.752Z,24.98
2022-12-19T15:44:58.121Z,33.33
2022-12-19T15:47:01.375Z,29.15
2022-12-19T15:49:03.239Z,29.73
2022-12-19T15:51:05.013Z,30.63
2022-12-19T15:53:26.968Z,26.80
2022-12-19T15:55:37.889Z,37.13
2022-12-19T15:58:00.952Z,33.22
2022-12-19T16:00:24.399Z,20.15
2022-12-19T16:02:42.640Z,27.90
2022-12-19T16:04:50.648Z,28.45
2022-12-19T16:06:52.825Z,21.90
2022-12-19T16:08:54.614Z,26.27
2022-12-19T16:11:01.657Z,32.00
2022-12-19T16:13:04.078Z,45.83
2022-12-19T16:15:12.977Z,37.33
2022-12-19T16:17:22.460Z,32.78
2022-12-19T16:19:26.695Z,34.13
2022-12-19T16:21:33.990Z,38.45
2022-12-19T16:23:36.101Z,36.63
2022-12-19T16:25:39.760Z,40.45
2022-12-19T16:27:42.446Z,38.05
2022-12-19T16:29:46.164Z,42.63
2022-12-19T16:31:48.205Z,36.33
2022-12-19T16:33:49.946Z,40.67
2022-12-19T16:36:04.128Z,43.35
2022-12-19T16:38:06.894Z,33.88
2022-12-19T16:40:16.985Z,41.78
2022-12-19T16:42:19.066Z,53.88
2022-12-19T16:44:22.335Z,44.33
2022-12-19T16:46:30.706Z,36.53
2022-12-19T16:48:35.524Z,35.00
2022-12-19T16:50:40.293Z,35.55
2022-12-19T16:52:42.814Z,35.80
2022-12-19T16:54:44.759Z,31.58
2022-12-19T16:56:48.667Z,38.65
2022-12-19T16:58:51.374Z,34.83
2022-12-19T17:00:55.275Z,31.15
2022-12-19T17:03:07.831Z,40.55
2022-12-19T17:05:36.019Z,40.83
2022-12-19T17:07:37.726Z,43.00
2022-12-19T17:09:39.449Z,40.95
2022-12-19T17:11:41.848Z,44.47
2022-12-19T17:13:45.663Z,42.92
2022-12-19T17:15:54.340Z,42.05
2022-12-19T17:17:59.991Z,46.80
2022-12-19T17:20:01.962Z,49.67
2022-12-19T17:22:04.092Z,44.92
2022-12-19T17:24:12.821Z,52.40
2022-12-19T17:26:17.971Z,43.03
2022-12-19T17:28:20.499Z,42.78
2022-12-19T17:30:22.403Z,43.97
2022-12-19T17:32:24.795Z,46.70
2022-12-19T17:34:29.971Z,50.65
2022-12-19T17:36:37.188Z,43.13
2022-12-19T17:38:39.733Z,55.45
2022-12-19T17:40:42.160Z,38.25
2022-12-19T17:42:44.101Z,41.97
2022-12-19T17:44:45.892Z,51.50
2022-12-19T17:46:47.951Z,45.20
2022-12-19T17:48:51.475Z,36.23
2022-12-19T17:50:53.922Z,32.63
2022-12-19T17:52:56.844Z,41.47
2022-12-19T17:54:58.583Z,47.10
2022-12-19T17:57:00.358Z,38.95
2022-12-19T17:59:02.105Z,38.47
2022-12-19T18:01:03.948Z,38.43
2022-12-19T18:03:18.718Z,44.85
2022-12-19T18:05:33.468Z,37.45
2022-12-19T18:07:35.349Z,34.77
2022-12-19T18:09:37.691Z,57.17
2022-12-19T18:11:42.121Z,52.03
2022-12-19T18:13:44.210Z,42.63
2022-12-19T18:15:46.426Z,50.73
2022-12-19T18:17:48.984Z,47.35
2022-12-19T18:19:50.924Z,46.97
2022-12-19T18:21:52.793Z,33.05
2022-12-19T18:23:55.357Z,38.75
2022-12-19T18:26:01.455Z,37.15
2022-12-19T18:28:04.398Z,36.33
2022-12-19T18:30:06.891Z,37.28
2022-12-19T18:32:19.185Z,28.13
2022-12-19T18:34:23.521Z,29.50
2022-12-19T18:36:27.561Z,41.78
2022-12-19T18:38:29.297Z,39.23
2022-12-19T18:40:31.916Z,26.55
2022-12-19T18:42:33.778Z,34.85
2022-12-19T18:44:35.554Z,40.10
2022-12-19T18:46:38.686Z,38.83
2022-12-19T18:48:41.100Z,33.53
2022-12-19T18:50:42.808Z,34.28
2022-12-19T18:52:45.147Z,35.75
2022-12-19T18:54:46.948Z,36.00
2022-12-19T18:56:48.731Z,42.55
2022-12-19T18:58:50.765Z,29.40
2022-12-19T19:00:58.959Z,42.90
2022-12-19T19:03:22.805Z,42.10
2022-12-19T19:05:28.460Z,35.97
2022-12-19T19:07:30.121Z,28.48
2022-12-19T19:09:31.880Z,35.40
2022-12-19T19:11:33.628Z,35.17
2022-12-19T19:13:35.652Z,32.40
2022-12-19T19:15:41.547Z,35.00
2022-12-19T19:17:43.329Z,38.42
2022-12-19T19:19:45.067Z,36.13
2022-12-19T19:21:46.828Z,38.97
2022-12-19T19:23:56.094Z,45.10
2022-12-19T19:25:57.788Z,56.30
2022-12-19T19:27:59.509Z,53.35
2022-12-19T19:30:01.261Z,45.90
2022-12-19T19:32:02.990Z,43.60
2022-12-19T19:34:40.316Z,33.60
2022-12-19T19:36:44.929Z,32.47
2022-12-19T19:38:54.309Z,35.28
2022-12-19T19:40:56.011Z,43.10
2022-12-19T19:42:57.710Z,39.47
2022-12-19T19:45:02.504Z,34.13
2022-12-19T19:47:04.372Z,40.00
2022-12-19T19:49:06.191Z,42.15
2022-12-19T19:51:08.276Z,41.83
2022-12-19T19:53:10.082Z,41.95
2022-12-19T19:55:12.115Z,38.00
2022-12-19T19:57:14.138Z,36.13
2022-12-19T19:59:16.061Z,36.85
2022-12-19T20:01:17.906Z,38.30
2022-12-19T20:03:22.889Z,45.72
2022-12-19T20:05:26.031Z,54.97
2022-12-19T20:07:27.899Z,58.80
2022-12-19T20:09:29.820Z,38.40
2022-12-19T20:11:31.655Z,52.92
2022-12-19T20:13:33.559Z,40.88
2022-12-19T20:15:35.591Z,34.95
2022-12-19T20:17:38.145Z,37.90
2022-12-19T20:19:40.020Z,56.80
2022-12-19T20:21:45.442Z,48.72
2022-12-19T20:23:47.486Z,46.53
2022-12-19T20:25:49.313Z,36.30
2022-12-19T20:27:51.110Z,42.97
2022-12-19T20:29:52.871Z,38.47
2022-12-19T20:31:56.600Z,54.20
2022-12-19T20:33:58.350Z,48.60
2022-12-19T20:36:18.308Z,40.20
2022-12-19T20:38:20.080Z,58.70
2022-12-19T20:40:21.823Z,43.60
2022-12-19T20:42:23.541Z,46.33
2022-12-19T20:44:25.628Z,49.85
2022-12-19T20:46:27.810Z,41.25
2022-12-19T20:48:29.564Z,43.15
2022-12-19T20:50:31.589Z,45.07
2022-12-19T20:52:33.293Z,41.33
2022-12-19T20:54:34.980Z,44.80
2022-12-19T20:56:36.804Z,48.23
2022-12-19T20:58:38.809Z,53.03
2022-12-19T21:00:40.571Z,44.83
2022-12-19T21:03:24.897Z,57.28
2022-12-19T21:05:04.734Z,52.70
2022-12-19T21:07:09.662Z,39.00
2022-12-19T21:09:12.479Z,54.10
2022-12-19T21:11:15.732Z,56.87
2022-12-19T21:13:17.703Z,45.00
2022-12-19T21:15:19.558Z,50.43
2022-12-19T21:17:21.406Z,46.58
2022-12-19T21:19:23.173Z,50.60
2022-12-19T21:21:26.583Z,64.83
2022-12-19T21:23:39.247Z,56.10
2022-12-19T21:25:41.092Z,43.80
2022-12-19T21:27:42.869Z,51.35
2022-12-19T21:29:45.658Z,40.15
2022-12-19T21:31:47.548Z,42.17
2022-12-19T21:34:07.636Z,43.90
2022-12-19T21:36:11.755Z,44.63
2022-12-19T21:38:13.546Z,46.33
2022-12-19T21:40:15.681Z,50.08
2022-12-19T21:42:17.464Z,38.43
2022-12-19T21:44:19.228Z,37.25
2022-12-19T21:46:30.063Z,44.17
2022-12-19T21:48:36.269Z,47.65
2022-12-19T21:50:38.152Z,46.35
2022-12-19T21:52:40.782Z,42.13
2022-12-19T21:54:42.590Z,42.78
2022-12-19T21:56:44.381Z,43.40
2022-12-19T21:58:46.226Z,53.93
2022-12-19T22:00:47.999Z,43.27
2022-12-19T22:03:12.616Z,42.80
2022-12-19T22:05:11.956Z,46.30
2022-12-19T22:07:13.736Z,46.97
2022-12-19T22:09:21.024Z,47.93
2022-12-19T22:11:22.816Z,46.92
2022-12-19T22:13:24.655Z,47.00
2022-12-19T22:15:27.487Z,46.85
2022-12-19T22:17:29.198Z,62.53
2022-12-19T22:19:31.069Z,60.90
2022-12-19T22:21:33.731Z,59.33
2022-12-19T22:23:35.667Z,50.17
2022-12-19T22:25:38.176Z,67.47
2022-12-19T22:27:39.956Z,62.93
2022-12-19T22:29:41.742Z,52.20
2022-12-19T22:31:44.480Z,52.08
2022-12-19T22:33:47.264Z,55.38
2022-12-19T22:35:48.957Z,48.13
2022-12-19T22:37:50.675Z,58.03
2022-12-19T22:39:52.532Z,46.30
2022-12-19T22:41:54.325Z,52.08
2022-12-19T22:43:56.413Z,54.33
2022-12-19T22:45:58.684Z,42.53
2022-12-19T22:48:00.492Z,56.50
2022-12-19T22:50:02.318Z,50.47
2022-12-19T22:52:04.530Z,54.83
2022-12-19T22:54:06.501Z,53.13
2022-12-19T22:56:11.986Z,55.20
2022-12-19T22:58:14.067Z,46.28
2022-12-19T23:00:15.929Z,52.03
2022-12-19T23:02:17.883Z,43.75
2022-12-19T23:04:20.154Z,44.35
2022-12-19T23:06:23.266Z,53.05
2022-12-19T23:08:24.971Z,36.00
2022-12-19T23:10:26.828Z,40.97
2022-12-19T23:12:28.553Z,49.15
2022-12-19T23:14:30.325Z,36.33
2022-12-19T23:16:32.114Z,42.67
2022-12-19T23:18:34.369Z,34.88
2022-12-19T23:20:36.314Z,36.92
2022-12-19T23:22:38.018Z,27.17
2022-12-19T23:24:40.708Z,34.83
2022-12-19T23:26:42.576Z,33.85
2022-12-19T23:28:45.322Z,37.53
2022-12-19T23:30:47.133Z,43.42
2022-12-19T23:32:50.985Z,34.67
2022-12-19T23:34:53.218Z,42.03
2022-12-19T23:37:11.877Z,25.98
2022-12-19T23:39:14.706Z,39.90
2022-12-19T23:41:16.495Z,36.38
2022-12-19T23:43:18.275Z,26.48
2022-12-19T23:45:20.050Z,33.85
2022-12-19T23:47:21.832Z,30.40
2022-12-19T23:49:23.757Z,38.45
2022-12-19T23:51:27.195Z,40.58
2022-12-19T23:53:29.456Z,36.67
2022-12-19T23:55:31.195Z,36.70
2022-12-19T23:57:32.949Z,38.33
2022-12-19T23:59:34.775Z,26.08
